Cooley, Minnesota
Current Conditions -  °F | °C
As of 7:35 PM on Friday 19 Dec 2014 (Local Time) from KGPZ Reporting Station
Overcast Overcast  
Wind Chill: 12°   Ceiling: 400
Heat Index: 23°   Visibility: 3mi
Dew Point: 21°   Wind: 10mph
Humidity: 93%   Direction: 150°SSE
Pressure: 30.1"   Gusts: NA
Location:  47.5025°N, 93.3734°W
Report Text: KGPZ 200135Z AUTO 15009KT 3SM OVC004 M05/M06 A3010 RMK AO1
Loading
Personal Weather Stations






























Interactive Weather Map New forecast layout! Learn more

10-Day Weather Forecast

Advertisements
Track Severe Weather on mobile